Aérodrome :
LOGIN :

S'inscrire | Disclaimer

   EN    FR    IT 

 










Légende :    VFR   VFR Marginal   IFR   IFR Intensif   IFR Très Intensif
Visi : 
Plafond : 
>= 8 km
>= 3000ft
5 à 8 km
1000 à 3000 ft
1500m à 5 km
500 à 1000 ft
800 à 1500m
200 à 500 ft
< 800m
< 200 ft
Symboles :   Orages  Brouillard  Fortes neiges  Fortes précipitations  Vent > 20 kt
SIGMETs :   Divers  Orages  Givrage  Turbulence  Onde Orograph.  Cendres Volcan.






- Altitude de l'aérodrome : 1649 ft
- Code IATA : HHN


EDFH - Frankfurt-Hahn Rhineland-Palatinate

DERNIER METAR :
  • 260620Z 15011KT 0300 R21/1200U FZFG VV/// M01/M01 Q1017

METARs EXPIRÉS :
  • 260550Z 15010KT 0300 R21/0900N FZFG VV/// M01/M01 Q1017
  • 260520Z 15012KT 0300 R21/0650N FZFG VV/// M01/M01 Q1017
  • 260450Z 15012KT 0200 R21/0400N FZFG VV/// M02/M02 Q1017
  • 260420Z 15010KT 0300 R21/0500N FZFG VV/// M02/M02 Q1017
  • 260350Z 16010KT 0300 R21/0450N FZFG VV/// M02/M02 Q1017

TAF TAF EDFH
Valide du 26 à 06h jusqu'au 27 à 06h UTC


260500Z 2606/2706 17008KT 0300 FZFG VV001
TEMPO 2608/2618 1200 BCFG SCT001
PROB30
TEMPO 2609/2615 5000 BR
BECMG 2703/2706 21015G25KT
TEMPO 2703/2706 3000 -RADZ BKN005



MET'MAP, la Météo Aéronautique d'un coup d'oeil ! - Copyright ORBIFLY Décembre 2007 - Disclaimer

ORBIFLY MET'MAP TEAM :

Programmation & Développement : Alexandra Zaïnal
Sur une idée originale de : Baudouin d'Aumeries
Assistance à la programmation : Marc-Olivier Méhu
Soutien technique & logistique : Manuel Goepfert

Contact : metmap@orbifly.com




SOURCES & CREDITS :

   NOAA